Time;durP1;ratioP1;P1;durP2;ratioP2;P2;SDS_P1;SDS_P2;PMS_P1;PMS_P2;Temp;Humidity;BMP_temperature;BMP_pressure;BME280_temperature;BME280_humidity;BME280_pressure;Samples;Min_cycle;Max_cycle;Signal;HPM_P1;HPM_P2
2022/03/14 00:01:41;;;;;;;16.60;10.30;;;7.70;99.90;;;8.30;100.00;98295.69;4998118;28;20463;-80
2022/03/14 00:04:11;;;;;;;13.60;9.10;;;7.60;99.90;;;8.32;100.00;98298.16;5002485;28;20486;-80
2022/03/14 00:06:43;;;;;;;19.27;10.57;;;7.60;99.90;;;8.35;100.00;98305.63;4995876;28;20459;-80
2022/03/14 00:09:13;;;;;;;14.83;10.00;;;7.60;99.90;;;8.35;100.00;98316.88;4999293;28;20495;-80
2022/03/14 00:11:43;;;;;;;16.37;9.77;;;7.50;99.90;;;8.33;100.00;98334.44;4999538;28;20462;-80
2022/03/14 00:14:13;;;;;;;14.60;9.80;;;7.60;99.90;;;8.35;100.00;98336.91;5000971;28;21182;-80
2022/03/14 00:16:47;;;;;;;17.10;10.70;;;7.70;99.90;;;8.36;100.00;98341.13;4999984;28;20459;-80
2022/03/14 00:19:18;;;;;;;13.80;9.40;;;7.60;99.90;;;8.37;100.00;98343.56;5000608;28;20463;-80
2022/03/14 00:21:49;;;;;;;15.17;10.03;;;7.60;99.90;;;8.38;100.00;98346.97;5000325;28;20835;-80
2022/03/14 00:24:19;;;;;;;16.57;10.00;;;7.60;99.90;;;8.39;100.00;98348.63;5001882;28;20845;-80
2022/03/14 00:26:54;;;;;;;17.40;10.77;;;7.60;99.90;;;8.38;100.00;98357.41;5000088;28;20467;-80
2022/03/14 00:29:33;;;;;;;16.37;10.30;;;7.60;99.90;;;8.38;100.00;98357.41;5000889;28;20497;-80
2022/03/14 00:32:16;;;;;;;16.23;10.90;;;7.60;99.90;;;8.37;100.00;98364.41;4997118;28;20455;-80
2022/03/14 00:34:47;;;;;;;16.40;10.23;;;7.60;99.90;;;8.36;100.00;98359.38;5000329;28;20451;-80
2022/03/14 00:37:18;;;;;;;17.80;11.17;;;7.70;99.90;;;8.34;100.00;98366.53;4997878;28;20574;-80
2022/03/14 00:39:49;;;;;;;17.53;10.60;;;7.70;99.90;;;8.31;100.00;98370.28;5000715;28;20497;-80
2022/03/14 00:42:21;;;;;;;24.53;11.30;;;7.60;99.90;;;8.31;100.00;98378.09;4996721;28;20589;-80
2022/03/14 00:44:51;;;;;;;21.27;11.13;;;7.60;99.90;;;8.33;100.00;98383.16;5001179;28;20554;-80
2022/03/14 00:47:22;;;;;;;16.37;10.27;;;7.60;99.90;;;8.33;100.00;98386.56;4999366;28;20497;-80
2022/03/14 00:49:54;;;;;;;16.40;9.47;;;7.60;99.90;;;8.33;100.00;98388.38;4999283;28;20569;-79
2022/03/14 00:52:27;;;;;;;14.77;10.00;;;7.70;99.90;;;8.24;100.00;98387.50;4997350;28;20950;-80
2022/03/14 00:54:57;;;;;;;18.30;10.73;;;7.50;99.90;;;8.26;100.00;98384.75;4998829;28;21049;-80
2022/03/14 00:57:27;;;;;;;14.43;9.13;;;7.60;99.90;;;8.27;100.00;98388.97;4997074;28;20470;-80
2022/03/14 00:59:58;;;;;;;18.90;9.57;;;7.50;99.90;;;8.29;100.00;98389.66;5000965;28;20470;-80
2022/03/14 01:02:28;;;;;;;13.57;9.00;;;7.60;99.90;;;8.31;100.00;98392.91;5002993;28;20454;-80
2022/03/14 01:04:59;;;;;;;14.47;9.73;;;7.60;99.90;;;8.32;100.00;98399.75;5002137;28;20459;-80
2022/03/14 01:07:30;;;;;;;13.70;8.00;;;7.70;99.90;;;8.30;100.00;98399.91;5000314;28;20478;-80
2022/03/14 01:10:00;;;;;;;8.40;6.33;;;7.70;99.90;;;8.32;100.00;98410.19;5000739;28;20483;-80
2022/03/14 01:12:30;;;;;;;8.43;5.57;;;7.60;99.90;;;8.35;100.00;98405.47;5001858;28;20855;-80
2022/03/14 01:15:02;;;;;;;11.27;6.07;;;7.70;99.90;;;8.38;100.00;98414.72;5001351;28;20985;-80
2022/03/14 01:17:32;;;;;;;8.70;5.93;;;7.70;99.90;;;8.41;100.00;98404.78;5002674;28;20481;-80
2022/03/14 01:20:01;;;;;;;8.50;5.30;;;7.70;99.90;;;8.44;100.00;98411.47;5001491;28;20455;-80
2022/03/14 01:22:33;;;;;;;7.27;4.20;;;7.60;99.90;;;8.45;100.00;98410.50;5002753;28;20481;-80
2022/03/14 01:25:03;;;;;;;5.30;2.50;;;7.60;99.90;;;8.47;100.00;98413.72;5000691;28;20848;-80
2022/03/14 01:27:34;;;;;;;2.90;2.20;;;7.70;99.90;;;8.50;100.00;98416.03;5001574;28;20463;-80
2022/03/14 01:30:09;;;;;;;2.57;2.00;;;7.70;99.90;;;8.53;100.00;98424.34;5002275;28;20494;-80
2022/03/14 01:32:38;;;;;;;2.07;1.87;;;7.90;99.90;;;8.53;100.00;98420.91;5000189;28;20933;-80
2022/03/14 01:35:09;;;;;;;3.73;2.27;;;7.80;99.90;;;8.56;100.00;98425.78;4998639;28;20470;-80
2022/03/14 01:37:42;;;;;;;2.80;2.50;;;7.80;99.90;;;8.56;100.00;98439.66;4996231;28;20475;-80
2022/03/14 01:40:15;;;;;;;4.00;2.63;;;7.90;99.90;;;8.55;100.00;98432.78;4999185;28;20466;-80
2022/03/14 01:42:46;;;;;;;1.80;1.70;;;7.80;99.90;;;8.57;100.00;98440.47;4999184;28;20871;-80
2022/03/14 01:45:17;;;;;;;2.47;1.50;;;7.80;99.90;;;8.58;100.00;98442.88;4998095;28;20589;-80
2022/03/14 01:47:48;;;;;;;4.60;1.70;;;7.90;99.90;;;8.56;100.00;98439.66;4997830;28;20533;-80
2022/03/14 01:50:20;;;;;;;2.00;1.47;;;7.80;99.90;;;8.58;100.00;98445.50;4996482;28;20582;-80
2022/03/14 01:52:52;;;;;;;1.50;1.40;;;7.80;99.90;;;8.62;100.00;98447.78;4996864;28;20474;-80
2022/03/14 01:55:22;;;;;;;2.10;1.80;;;7.90;99.90;;;8.62;100.00;98447.78;4997052;28;21001;-80
2022/03/14 01:57:52;;;;;;;1.90;1.80;;;8.00;99.90;;;8.58;100.00;98442.88;4997299;28;20466;-80
2022/03/14 02:00:22;;;;;;;3.67;1.63;;;7.90;99.90;;;8.60;100.00;98455.78;5000148;28;20474;-80
2022/03/14 02:02:54;;;;;;;1.90;1.80;;;7.90;99.90;;;8.61;100.00;98449.56;5000914;28;20470;-80
2022/03/14 02:05:24;;;;;;;1.63;1.50;;;7.90;99.90;;;8.61;100.00;98452.16;5001438;28;20900;-80
2022/03/14 02:07:57;;;;;;;2.00;1.80;;;7.80;99.90;;;8.62;100.00;98452.97;5004402;28;20466;-80
2022/03/14 02:10:28;;;;;;;2.20;1.90;;;7.90;99.90;;;8.61;100.00;98446.16;5004638;28;20474;-80
2022/03/14 02:13:03;;;;;;;3.20;2.30;;;8.00;99.90;;;8.61;100.00;98448.78;5003127;28;20467;-80
2022/03/14 02:15:34;;;;;;;4.70;2.20;;;7.90;99.90;;;8.61;100.00;98456.59;4999803;28;20973;-80
2022/03/14 02:18:05;;;;;;;5.30;1.77;;;7.90;99.90;;;8.58;100.00;98462.94;5002564;28;20554;-80
2022/03/14 02:20:37;;;;;;;2.63;2.07;;;8.00;99.90;;;8.58;100.00;98462.94;5004170;28;20985;-80
2022/03/14 02:23:07;;;;;;;4.07;2.00;;;7.90;99.90;;;8.57;100.00;98466.53;5003625;28;20894;-80
2022/03/14 02:25:47;;;;;;;3.63;2.13;;;7.80;99.90;;;8.58;100.00;98466.34;5001082;28;20470;-80
2022/03/14 02:28:22;;;;;;;2.00;1.50;;;7.80;99.90;;;8.56;100.00;98470.91;5001977;28;20469;-80
2022/03/14 02:30:53;;;;;;;4.60;1.80;;;7.80;99.90;;;8.57;100.00;98469.91;5001654;28;21032;-80
2022/03/14 02:33:22;;;;;;;2.80;1.80;;;7.70;99.90;;;8.56;100.00;98465.72;5002281;28;20899;-80
2022/03/14 02:35:55;;;;;;;2.03;1.83;;;7.80;99.90;;;8.57;100.00;98467.31;4999816;28;20495;-80
2022/03/14 02:38:24;;;;;;;2.33;2.13;;;7.80;99.90;;;8.58;100.00;98468.13;4999878;28;20584;-80
2022/03/14 02:40:53;;;;;;;3.07;2.33;;;7.80;99.90;;;8.59;100.00;98470.59;5001506;28;20467;-80
2022/03/14 02:43:24;;;;;;;5.40;2.67;;;7.90;99.90;;;8.52;100.00;98471.41;5001289;28;20474;-80
2022/03/14 02:45:55;;;;;;;2.73;2.50;;;7.90;99.90;;;8.52;100.00;98480.03;4997393;28;20468;-80
2022/03/14 02:48:25;;;;;;;2.10;1.77;;;7.90;99.90;;;8.53;100.00;98480.84;5001526;28;20553;-80
2022/03/14 02:50:57;;;;;;;2.17;1.97;;;7.80;99.90;;;8.54;100.00;98483.28;5000860;28;21100;-80
2022/03/14 02:53:26;;;;;;;4.63;2.17;;;7.90;99.90;;;8.51;100.00;98488.81;5000536;28;20460;-80
2022/03/14 02:55:56;;;;;;;2.50;2.00;;;7.90;99.90;;;8.49;100.00;98493.41;5001115;28;20459;-80
2022/03/14 02:58:30;;;;;;;3.30;1.93;;;7.90;99.90;;;8.48;100.00;98499.59;5001504;28;21151;-80
2022/03/14 03:01:00;;;;;;;2.30;1.60;;;7.90;99.90;;;8.35;100.00;98514.88;5003525;28;20463;-80
2022/03/14 03:03:31;;;;;;;2.77;1.73;;;7.80;99.90;;;8.33;100.00;98516.81;5004032;28;20467;-80
2022/03/14 03:06:03;;;;;;;1.77;1.67;;;7.80;99.90;;;8.30;100.00;98524.97;5000954;28;20545;-80
2022/03/14 03:08:33;;;;;;;2.10;1.27;;;7.60;99.90;;;8.28;100.00;98539.97;5002655;28;20891;-80
2022/03/14 03:11:08;;;;;;;1.80;1.40;;;7.60;99.90;;;8.28;100.00;98542.56;4999853;28;21035;-80
2022/03/14 03:13:37;;;;;;;1.93;1.50;;;7.60;99.90;;;8.32;100.00;98556.09;4999494;28;20497;-80
2022/03/14 03:16:07;;;;;;;1.70;1.60;;;7.70;99.90;;;8.28;100.00;98563.41;4999980;28;20466;-80
2022/03/14 03:18:37;;;;;;;1.77;1.60;;;7.70;99.90;;;8.27;100.00;98564.34;5000305;28;20470;-80
2022/03/14 03:21:09;;;;;;;2.77;1.87;;;7.60;99.90;;;8.27;100.00;98563.50;5000837;28;21037;-80
2022/03/14 03:23:41;;;;;;;3.80;1.60;;;7.60;99.90;;;8.21;100.00;98578.00;5004281;28;20473;-80
2022/03/14 03:26:11;;;;;;;1.60;1.40;;;7.60;99.90;;;8.27;100.00;98574.75;4998840;28;21110;-80
2022/03/14 03:28:43;;;;;;;1.37;1.27;;;7.70;99.90;;;8.21;100.00;98575.41;5002855;28;20795;-80
2022/03/14 03:31:16;;;;;;;1.50;1.40;;;7.70;99.90;;;8.18;100.00;98583.53;5005303;28;20514;-80
2022/03/14 03:33:47;;;;;;;4.20;1.40;;;7.70;99.90;;;8.19;100.00;98595.56;5003298;28;20483;-80
2022/03/14 03:36:18;;;;;;;1.30;1.20;;;7.60;99.90;;;8.20;100.00;98588.56;5004611;28;20493;-80
2022/03/14 03:38:48;;;;;;;1.30;1.20;;;7.70;99.90;;;8.17;100.00;98592.31;5005377;28;20541;-80
2022/03/14 03:41:18;;;;;;;1.97;1.60;;;7.60;99.90;;;8.21;100.00;98590.22;5005510;28;20502;-80
2022/03/14 03:43:49;;;;;;;1.90;1.30;;;7.60;99.90;;;8.21;100.00;98596.25;4999332;28;20474;-80
2022/03/14 03:46:19;;;;;;;2.27;1.67;;;7.60;99.90;;;8.20;100.00;98602.41;4997538;28;20546;-80
2022/03/14 03:48:50;;;;;;;2.87;1.70;;;7.60;99.90;;;8.22;100.00;98623.94;4999164;28;20991;-80
2022/03/14 03:51:22;;;;;;;1.50;1.40;;;7.60;99.90;;;8.19;100.00;98619.00;4997274;28;20506;-80
2022/03/14 03:53:55;;;;;;;1.40;1.30;;;7.60;99.90;;;8.18;100.00;98625.22;5000132;28;20467;-80
2022/03/14 03:56:26;;;;;;;1.30;1.20;;;7.60;99.90;;;8.19;100.00;98620.81;4999877;28;20526;-79
2022/03/14 03:58:57;;;;;;;1.40;1.30;;;7.60;99.90;;;8.17;100.00;98627.97;4999680;28;20550;-78
2022/03/14 04:01:30;;;;;;;3.00;1.40;;;7.40;99.90;;;8.17;100.00;98631.38;4999538;28;20573;-78
2022/03/14 04:04:01;;;;;;;1.40;1.30;;;7.60;99.90;;;8.17;100.00;98636.59;4997440;28;20581;-78
2022/03/14 04:06:34;;;;;;;1.73;1.27;;;7.60;99.90;;;8.14;100.00;98631.72;4998679;28;20490;-79
2022/03/14 04:09:06;;;;;;;5.03;2.90;;;7.60;99.90;;;8.14;100.00;98644.72;5000990;28;20459;-78
2022/03/14 04:11:36;;;;;;;3.60;1.53;;;7.60;99.90;;;8.14;100.00;98652.53;4997608;28;20786;-78
2022/03/14 04:14:07;;;;;;;1.43;1.33;;;7.50;99.90;;;8.17;100.00;98662.66;5000510;28;20546;-78
2022/03/14 04:16:41;;;;;;;1.10;1.00;;;7.40;99.90;;;8.14;100.00;98669.97;5002909;28;20844;-78
2022/03/14 04:19:11;;;;;;;2.57;1.60;;;7.50;99.90;;;8.12;100.00;98664.91;5004177;28;20965;-77
2022/03/14 04:21:45;;;;;;;1.27;1.17;;;7.50;99.90;;;8.14;100.00;98673.38;5004488;28;20451;-78
2022/03/14 04:24:16;;;;;;;1.37;1.20;;;7.40;99.90;;;8.14;100.00;98670.78;5004007;28;20443;-78
2022/03/14 04:26:48;;;;;;;1.37;1.20;;;7.50;99.90;;;8.12;100.00;98670.13;5003059;28;20456;-77
2022/03/14 04:29:19;;;;;;;2.27;1.20;;;7.50;99.90;;;8.07;100.00;98677.56;4996752;28;20459;-78
2022/03/14 04:31:49;;;;;;;1.60;1.00;;;7.40;99.90;;;8.07;100.00;98682.78;4998656;28;20494;-78
2022/03/14 04:34:19;;;;;;;1.40;1.20;;;7.40;99.90;;;8.08;100.00;98687.84;5003737;28;21012;-78
2022/03/14 04:36:51;;;;;;;3.43;1.40;;;7.40;99.90;;;8.07;100.00;98694.03;4996812;28;20490;-78
2022/03/14 04:39:21;;;;;;;1.83;1.20;;;7.40;99.90;;;8.06;100.00;98689.78;5000610;28;20873;-79
2022/03/14 04:41:51;;;;;;;2.00;1.30;;;7.50;99.90;;;8.06;100.00;98691.56;5001937;28;20470;-79
2022/03/14 04:44:21;;;;;;;2.30;1.40;;;7.50;99.90;;;8.05;100.00;98698.56;4999306;28;20525;-78
2022/03/14 04:46:51;;;;;;;1.20;1.10;;;7.40;99.90;;;8.06;100.00;98694.16;4997049;28;20466;-78
2022/03/14 04:49:21;;;;;;;4.10;1.70;;;7.40;99.90;;;8.08;100.00;98702.66;4997285;28;20475;-79
2022/03/14 04:51:54;;;;;;;4.13;1.77;;;7.30;99.90;;;8.04;100.00;98715.19;4986021;28;21067;-79
2022/03/14 04:54:23;;;;;;;4.47;1.80;;;7.50;99.90;;;8.04;100.00;98715.19;4985818;28;20459;-79
2022/03/14 04:56:54;;;;;;;3.93;1.60;;;7.40;99.90;;;8.06;100.00;98725.41;4997141;28;20504;-79
2022/03/14 04:59:24;;;;;;;2.57;1.60;;;7.40;99.90;;;8.05;100.00;98716.00;5000622;28;20459;-78
2022/03/14 05:01:54;;;;;;;7.37;1.67;;;7.50;99.90;;;8.04;100.00;98725.59;4997225;28;20467;-78
2022/03/14 05:04:24;;;;;;;4.30;1.63;;;7.40;99.90;;;8.01;100.00;98717.28;4999707;28;20463;-78
2022/03/14 05:06:55;;;;;;;10.33;1.93;;;7.40;99.90;;;8.01;100.00;98730.28;4998068;28;20548;-78
2022/03/14 05:09:25;;;;;;;2.67;2.10;;;7.40;99.90;;;8.00;100.00;98724.25;4999092;28;20554;-78
2022/03/14 05:11:57;;;;;;;2.00;1.60;;;7.40;99.90;;;7.98;100.00;98718.38;4997258;28;20491;-78
2022/03/14 05:14:27;;;;;;;3.40;1.97;;;7.40;99.90;;;7.97;100.00;98727.19;5000313;28;21051;-78
2022/03/14 05:17:00;;;;;;;5.83;1.70;;;7.40;99.90;;;8.00;100.00;98733.84;4999073;28;20468;-78
2022/03/14 05:19:31;;;;;;;5.17;1.90;;;7.40;99.90;;;7.98;100.00;98743.63;4997985;28;20856;-79
2022/03/14 05:22:02;;;;;;;8.33;1.73;;;7.40;99.90;;;7.95;100.00;98741.28;4996882;28;20463;-78
2022/03/14 05:24:32;;;;;;;4.03;2.20;;;7.40;99.90;;;7.94;100.00;98739.69;5000328;28;20850;-78
2022/03/14 05:27:02;;;;;;;4.53;2.40;;;7.40;99.90;;;7.98;100.00;98746.22;4999985;28;20510;-79
2022/03/14 05:29:32;;;;;;;6.37;1.70;;;7.40;99.90;;;7.96;100.00;98750.75;5001800;28;20474;-79
2022/03/14 05:32:03;;;;;;;8.50;1.90;;;7.40;99.90;;;7.95;100.00;98751.72;5000021;28;20485;-78
2022/03/14 05:34:34;;;;;;;8.33;1.57;;;7.30;99.90;;;7.97;100.00;98755.00;4999179;28;20462;-78
2022/03/14 05:37:05;;;;;;;4.43;2.17;;;7.40;99.90;;;7.99;100.00;98753.06;5000081;28;20847;-78
2022/03/14 05:39:35;;;;;;;4.10;1.63;;;7.30;99.90;;;7.96;100.00;98758.56;4998682;28;20525;-78
2022/03/14 05:42:06;;;;;;;2.00;1.67;;;7.40;99.90;;;7.98;100.00;98761.84;5000794;28;20474;-78
2022/03/14 05:44:35;;;;;;;4.63;2.00;;;7.30;99.90;;;7.96;100.00;98768.97;4997587;28;21336;-78
2022/03/14 05:47:09;;;;;;;16.00;3.23;;;7.30;99.90;;;7.96;100.00;98771.59;5000132;28;20478;-78
2022/03/14 05:49:39;;;;;;;4.50;2.10;;;7.30;99.90;;;7.92;100.00;98781.50;4999602;28;20477;-82
2022/03/14 05:52:11;;;;;;;4.77;2.20;;;7.30;99.90;;;7.93;100.00;98787.53;4999897;28;20494;-78
2022/03/14 05:54:41;;;;;;;9.50;2.13;;;7.30;99.90;;;7.93;100.00;98792.72;4998150;28;20553;-78
2022/03/14 05:57:11;;;;;;;2.67;1.70;;;7.40;99.90;;;7.91;100.00;98798.06;4999773;28;20463;-78
2022/03/14 05:59:42;;;;;;;2.50;1.43;;;7.40;99.90;;;7.93;100.00;98803.16;4997910;28;20467;-77
2022/03/14 06:02:11;;;;;;;2.83;1.50;;;7.40;99.90;;;7.94;100.00;98802.19;5001424;28;20497;-77
2022/03/14 06:04:42;;;;;;;4.87;1.93;;;7.30;99.90;;;7.95;100.00;98814.22;5000526;28;20982;-82
2022/03/14 06:07:13;;;;;;;9.97;1.80;;;7.40;99.90;;;7.88;100.00;98810.59;5002773;28;20474;-77
2022/03/14 06:09:43;;;;;;;3.33;1.83;;;7.30;99.90;;;7.85;100.00;98809.09;5001372;28;20455;-77
2022/03/14 06:12:13;;;;;;;3.37;1.50;;;7.40;99.90;;;7.83;100.00;98812.84;5002168;28;20544;-77
2022/03/14 06:14:43;;;;;;;5.90;1.90;;;7.30;99.90;;;7.88;100.00;98813.22;5002474;28;21087;-77
2022/03/14 06:17:13;;;;;;;7.97;2.00;;;7.30;99.90;;;7.85;100.00;98808.28;5003609;28;20525;-77
2022/03/14 06:19:42;;;;;;;8.33;2.03;;;7.30;99.90;;;7.87;100.00;98814.16;5005415;28;20537;-77
2022/03/14 06:22:17;;;;;;;5.80;2.13;;;7.20;99.90;;;7.85;100.00;98823.91;5005277;28;20538;-77
2022/03/14 06:24:47;;;;;;;6.07;1.93;;;7.30;99.90;;;7.85;100.00;98821.28;5005395;28;20633;-77
2022/03/14 06:27:20;;;;;;;8.67;3.70;;;7.30;99.90;;;7.87;100.00;98821.97;5003336;28;20815;-77
2022/03/14 06:29:55;;;;;;;5.27;1.97;;;7.30;99.90;;;7.85;100.00;98819.50;5006003;28;20482;-77
2022/03/14 06:32:27;;;;;;;4.57;2.30;;;7.30;99.90;;;7.86;100.00;98826.38;5006080;28;21178;-77
2022/03/14 06:34:56;;;;;;;10.73;2.20;;;7.20;99.90;;;7.86;100.00;98830.75;5005842;28;20439;-77
2022/03/14 06:37:28;;;;;;;11.17;2.20;;;7.20;99.90;;;7.87;100.00;98832.41;5006109;28;20487;-77
2022/03/14 06:39:59;;;;;;;5.90;2.10;;;7.20;99.90;;;7.89;100.00;98839.09;5006876;28;20462;-77
2022/03/14 06:42:29;;;;;;;5.20;2.37;;;7.20;99.90;;;7.90;100.00;98845.94;5006313;28;20455;-77
2022/03/14 06:45:01;;;;;;;3.57;1.73;;;7.30;99.90;;;7.92;100.00;98846.59;5007015;28;20471;-77
2022/03/14 06:47:34;;;;;;;5.83;2.10;;;7.30;99.90;;;7.94;100.00;98849.06;5005758;28;20957;-77
2022/03/14 06:50:04;;;;;;;10.30;2.10;;;7.20;99.90;;;7.99;100.00;98857.22;5005578;28;20455;-77
2022/03/14 06:52:35;;;;;;;8.67;1.97;;;7.20;99.90;;;7.94;100.00;98864.69;5007637;28;20494;-77
2022/03/14 06:55:06;;;;;;;3.93;1.53;;;7.30;99.90;;;7.92;100.00;98871.81;5010723;28;20509;-77
2022/03/14 06:57:36;;;;;;;8.33;2.13;;;7.20;99.90;;;7.96;100.00;98867.94;5009568;28;20542;-77
2022/03/14 07:00:08;;;;;;;3.63;1.83;;;7.20;99.90;;;7.92;100.00;98867.41;5010495;28;20879;-77
2022/03/14 07:02:40;;;;;;;8.80;2.90;;;7.20;99.90;;;7.98;100.00;98872.03;5009314;28;20457;-77
2022/03/14 07:05:17;;;;;;;8.83;2.20;;;7.30;99.90;;;8.01;100.00;98873.53;5009758;28;20462;-77
2022/03/14 07:07:50;;;;;;;3.20;1.60;;;7.40;99.90;;;8.04;100.00;98873.22;5009318;28;20846;-77
2022/03/14 07:10:21;;;;;;;5.13;2.17;;;7.50;99.90;;;8.04;100.00;98878.44;5009123;28;20450;-77
2022/03/14 07:12:50;;;;;;;2.50;1.73;;;7.40;99.90;;;8.07;100.00;98878.13;5009021;28;20490;-77
2022/03/14 07:15:25;;;;;;;7.40;2.43;;;7.40;99.90;;;8.01;100.00;98883.94;5008160;28;20459;-77
2022/03/14 07:17:55;;;;;;;8.30;2.03;;;7.20;99.90;;;8.06;100.00;98889.50;5009651;28;20449;-77
2022/03/14 07:20:26;;;;;;;6.43;2.03;;;7.40;99.90;;;8.09;100.00;98894.41;5008617;28;20461;-77
2022/03/14 07:23:00;;;;;;;9.90;2.30;;;7.40;99.90;;;8.09;100.00;98905.66;5008991;28;20460;-77
2022/03/14 07:25:34;;;;;;;6.70;2.17;;;7.50;99.90;;;8.15;100.00;98913.84;5009956;28;20442;-77
2022/03/14 07:28:09;;;;;;;4.30;1.93;;;7.40;99.90;;;8.17;100.00;98915.31;5010269;28;20458;-77
2022/03/14 07:30:39;;;;;;;6.77;2.03;;;7.60;99.90;;;8.19;100.00;98921.19;5009307;28;20487;-77
2022/03/14 07:33:08;;;;;;;3.40;2.10;;;7.60;99.90;;;8.19;100.00;98930.81;5008708;28;20483;-76
2022/03/14 07:35:38;;;;;;;8.73;1.97;;;7.60;99.90;;;8.19;100.00;98936.81;5009506;28;20537;-77
2022/03/14 07:38:10;;;;;;;3.90;1.67;;;7.50;99.90;;;8.19;100.00;98936.81;5009399;28;20485;-77
2022/03/14 07:40:40;;;;;;;4.73;1.73;;;7.60;99.90;;;8.19;100.00;98947.25;5008872;28;20561;-77
2022/03/14 07:43:11;;;;;;;3.97;1.93;;;7.60;99.90;;;8.25;100.00;98951.88;5009024;28;20813;-77
2022/03/14 07:45:41;;;;;;;4.27;1.80;;;7.60;99.90;;;8.25;100.00;98948.44;5009130;28;20466;-77
2022/03/14 07:48:13;;;;;;;9.83;2.07;;;7.60;99.90;;;8.22;100.00;98957.41;5008447;28;20490;-77
2022/03/14 07:50:44;;;;;;;10.90;2.20;;;7.50;99.90;;;8.27;100.00;98962.97;5008138;28;21005;-77
2022/03/14 07:53:21;;;;;;;5.07;1.80;;;7.60;99.90;;;8.27;100.00;98962.97;5008847;28;20537;-77
2022/03/14 07:55:52;;;;;;;4.00;2.07;;;7.60;99.90;;;8.29;100.00;98966.28;5008590;28;20825;-77
2022/03/14 07:58:22;;;;;;;7.53;1.80;;;7.60;99.90;;;8.26;100.00;98970.94;5008814;28;20555;-77
2022/03/14 08:00:56;;;;;;;3.80;2.10;;;7.60;99.90;;;8.27;100.00;98978.59;5009119;28;20505;-77
2022/03/14 08:03:28;;;;;;;8.20;2.30;;;7.60;99.90;;;8.33;100.00;98983.22;5009622;28;20466;-77
2022/03/14 08:06:00;;;;;;;3.00;1.60;;;7.70;99.90;;;8.37;100.00;98992.38;5008845;28;20478;-77
2022/03/14 08:08:32;;;;;;;5.53;1.73;;;7.70;99.90;;;8.37;100.00;98994.16;5008518;28;20807;-77
2022/03/14 08:11:04;;;;;;;6.17;1.50;;;7.70;99.90;;;8.40;100.00;98999.91;5008657;28;20447;-77
2022/03/14 08:13:36;;;;;;;14.53;2.00;;;7.70;99.90;;;8.41;100.00;99000.72;5007997;28;20507;-77
2022/03/14 08:16:07;;;;;;;3.20;1.80;;;7.80;99.90;;;8.45;100.00;99010.72;5006661;28;20459;-77
2022/03/14 08:18:38;;;;;;;2.43;1.87;;;7.90;99.90;;;8.49;100.00;99021.66;5008131;28;20526;-77
2022/03/14 08:21:09;;;;;;;8.83;2.00;;;7.90;99.90;;;8.51;100.00;99012.72;5008560;28;20457;-77
2022/03/14 08:23:41;;;;;;;21.37;1.87;;;7.90;99.90;;;8.53;100.00;99007.38;5007959;28;20449;-77
2022/03/14 08:26:11;;;;;;;23.40;2.37;;;8.00;99.90;;;8.56;100.00;99015.69;5006976;28;20454;-77
2022/03/14 08:28:42;;;;;;;2.77;1.70;;;8.00;99.90;;;8.52;100.00;99016.97;5008913;28;20446;-77
2022/03/14 08:31:15;;;;;;;2.27;2.00;;;7.90;99.90;;;8.46;100.00;99021.97;5008438;28;20487;-77
2022/03/14 08:33:46;;;;;;;4.30;1.77;;;7.80;99.90;;;8.44;100.00;99024.69;5007843;28;20482;-77
2022/03/14 08:36:20;;;;;;;4.00;1.80;;;7.70;99.90;;;8.45;100.00;99023.75;5007729;28;20537;-77
2022/03/14 08:38:51;;;;;;;2.63;1.80;;;7.70;99.90;;;8.47;100.00;99015.75;5007138;28;21033;-77
2022/03/14 08:41:22;;;;;;;4.33;1.93;;;7.80;99.90;;;8.46;100.00;99017.56;5007974;28;20451;-77
2022/03/14 08:43:54;;;;;;;11.27;1.93;;;7.70;99.90;;;8.46;100.00;99024.56;5007039;28;20451;-77
2022/03/14 08:46:24;;;;;;;5.53;2.30;;;7.70;99.90;;;8.49;100.00;99040.72;5006056;28;20447;-77
2022/03/14 08:48:54;;;;;;;9.40;1.87;;;7.80;99.90;;;8.46;100.00;99030.59;5006300;28;20510;-77
2022/03/14 08:51:24;;;;;;;5.50;1.83;;;7.90;99.90;;;8.47;100.00;99040.03;5007884;28;20528;-77
2022/03/14 08:53:56;;;;;;;8.70;1.40;;;7.80;99.90;;;8.51;100.00;99044.00;5007810;28;20545;-77
2022/03/14 08:56:26;;;;;;;2.90;1.57;;;7.90;99.90;;;8.49;100.00;99047.72;5006623;28;20454;-77
2022/03/14 08:58:57;;;;;;;4.17;1.90;;;7.90;99.90;;;8.49;100.00;99048.56;5008033;28;21004;-77
2022/03/14 09:01:27;;;;;;;5.57;2.10;;;7.80;99.90;;;8.53;100.00;99062.94;5008232;28;20459;-77
2022/03/14 09:03:57;;;;;;;9.27;2.17;;;7.90;99.90;;;8.61;100.00;99061.38;5008223;28;20451;-77
2022/03/14 09:06:28;;;;;;;4.40;1.90;;;7.90;99.90;;;8.69;100.00;99061.41;5006679;28;20494;-77
2022/03/14 09:08:59;;;;;;;5.53;1.67;;;8.00;99.90;;;8.77;100.00;99064.09;5006901;28;20451;-77
2022/03/14 09:11:29;;;;;;;5.30;2.07;;;8.10;99.90;;;8.85;100.00;99062.38;5007425;28;20455;-77
2022/03/14 09:13:59;;;;;;;5.63;1.67;;;8.20;99.90;;;8.84;100.00;99075.56;5008352;28;20494;-77
2022/03/14 09:16:29;;;;;;;5.43;1.50;;;8.20;99.90;;;8.90;100.00;99075.78;5006278;28;20453;-77
2022/03/14 09:18:58;;;;;;;3.00;1.60;;;8.30;99.90;;;8.86;100.00;99084.06;5007372;28;20455;-77
2022/03/14 09:21:28;;;;;;;6.10;1.60;;;8.20;99.90;;;8.80;100.00;99076.84;5007293;28;20459;-77
2022/03/14 09:24:00;;;;;;;3.50;1.57;;;8.10;99.90;;;8.90;100.00;99080.19;5007946;28;20467;-78
2022/03/14 09:26:32;;;;;;;2.60;1.83;;;8.30;99.90;;;8.97;100.00;99084.66;5006191;28;20450;-78
2022/03/14 09:29:03;;;;;;;3.63;1.87;;;8.40;99.90;;;8.97;100.00;99089.03;5006681;28;20441;-78
2022/03/14 09:31:35;;;;;;;5.73;2.07;;;8.30;99.90;;;9.06;100.00;99088.94;5005629;28;20966;-78
2022/03/14 09:34:06;;;;;;;5.17;1.50;;;8.50;99.90;;;9.08;100.00;99092.25;5007287;28;20506;-77
2022/03/14 09:36:36;;;;;;;1.47;1.20;;;8.40;99.90;;;9.04;100.00;99090.91;5006708;28;20486;-77
2022/03/14 09:39:15;;;;;;;5.23;1.63;;;8.40;99.90;;;9.02;100.00;99098.03;5008492;28;20449;-77
2022/03/14 09:41:48;;;;;;;5.40;2.77;;;8.40;99.90;;;9.02;100.00;99102.47;5007927;28;20435;-77
2022/03/14 09:44:22;;;;;;;7.00;1.90;;;8.40;99.90;;;9.02;100.00;99107.69;5006708;28;20550;-78
2022/03/14 09:46:51;;;;;;;4.10;1.50;;;8.30;99.90;;;9.02;100.00;99112.91;5007041;28;20447;-77
2022/03/14 09:49:22;;;;;;;5.53;1.60;;;8.30;99.90;;;9.03;100.00;99114.50;5005624;28;20482;-77
2022/03/14 09:51:54;;;;;;;3.77;1.80;;;8.30;99.90;;;9.04;100.00;99121.38;5008474;28;20858;-77
2022/03/14 09:54:26;;;;;;;6.57;1.80;;;8.40;99.90;;;9.06;100.00;99115.03;5007256;28;20478;-78
2022/03/14 09:57:01;;;;;;;5.87;1.60;;;8.50;99.90;;;9.01;100.00;99121.69;5006301;28;20812;-78
2022/03/14 09:59:32;;;;;;;3.50;1.73;;;8.40;99.90;;;9.00;100.00;99120.88;5007598;28;20974;-77
2022/03/14 10:02:03;;;;;;;11.50;1.90;;;8.30;99.90;;;9.04;100.00;99130.03;5007067;28;20447;-77
2022/03/14 10:04:34;;;;;;;4.37;1.20;;;8.50;99.90;;;9.05;100.00;99134.28;5007115;28;20455;-77
2022/03/14 10:07:04;;;;;;;1.53;1.20;;;8.40;99.90;;;9.05;100.00;99138.69;5006038;28;20469;-77
2022/03/14 10:09:37;;;;;;;3.80;1.70;;;8.50;99.90;;;9.08;100.00;99133.16;5006507;28;20526;-78
2022/03/14 10:12:09;;;;;;;1.90;1.30;;;8.50;99.90;;;9.08;100.00;99138.38;5005871;28;21087;-77
2022/03/14 10:14:39;;;;;;;3.30;1.50;;;8.50;99.90;;;9.11;100.00;99143.28;5006034;28;20678;-77
2022/03/14 10:17:10;;;;;;;7.33;1.77;;;8.50;99.90;;;9.15;100.00;99144.63;5004395;28;20501;-77
2022/03/14 10:19:40;;;;;;;2.40;1.53;;;8.60;99.90;;;9.10;100.00;99141.66;5006650;28;20455;-77
2022/03/14 10:22:16;;;;;;;5.47;1.90;;;8.50;99.90;;;9.18;100.00;99148.72;5006370;28;20455;-77
2022/03/14 10:24:48;;;;;;;2.00;1.60;;;8.40;99.90;;;9.24;100.00;99154.16;5005482;28;21000;-78
2022/03/14 10:27:22;;;;;;;3.87;1.70;;;8.60;99.90;;;9.27;100.00;99159.06;5007464;28;20521;-77
2022/03/14 10:29:51;;;;;;;3.73;1.40;;;8.60;99.90;;;9.27;100.00;99163.47;5009923;28;20475;-77
2022/03/14 10:32:30;;;;;;;2.20;1.37;;;8.70;99.90;;;9.28;100.00;99172.94;5009555;28;20968;-77
2022/03/14 10:35:04;;;;;;;4.50;2.13;;;8.70;99.90;;;9.30;100.00;99165.81;5009698;28;20511;-77
2022/03/14 10:37:36;;;;;;;4.10;1.50;;;8.80;99.90;;;9.31;100.00;99170.03;5009436;28;20455;-77
2022/03/14 10:40:12;;;;;;;6.70;1.40;;;8.70;99.90;;;9.26;100.00;99172.28;5010140;28;20920;-77
2022/03/14 10:42:44;;;;;;;7.50;2.20;;;8.70;99.90;;;9.23;100.00;99173.41;5009453;28;20454;-78